sensor_id;sensor_type;location;lat;lon;timestamp;P1;durP1;ratioP1;P2;durP2;ratioP2
11596;SDS011;5854;48.072;16.286;2022-09-06T00:01:22;2.22;;;2.03;;
11596;SDS011;5854;48.072;16.286;2022-09-06T00:03:49;3.50;;;2.10;;
11596;SDS011;5854;48.072;16.286;2022-09-06T00:06:18;3.28;;;2.03;;
11596;SDS011;5854;48.072;16.286;2022-09-06T00:08:46;4.15;;;1.85;;
11596;SDS011;5854;48.072;16.286;2022-09-06T00:11:14;2.75;;;2.20;;
11596;SDS011;5854;48.072;16.286;2022-09-06T00:13:43;3.28;;;1.75;;
11596;SDS011;5854;48.072;16.286;2022-09-06T00:16:13;3.95;;;2.65;;
11596;SDS011;5854;48.072;16.286;2022-09-06T00:18:42;5.38;;;2.08;;
11596;SDS011;5854;48.072;16.286;2022-09-06T00:21:14;3.53;;;2.22;;
11596;SDS011;5854;48.072;16.286;2022-09-06T00:23:45;3.92;;;1.85;;
11596;SDS011;5854;48.072;16.286;2022-09-06T00:26:12;5.00;;;2.17;;
11596;SDS011;5854;48.072;16.286;2022-09-06T00:28:40;2.28;;;2.08;;
11596;SDS011;5854;48.072;16.286;2022-09-06T00:31:08;2.60;;;2.40;;
11596;SDS011;5854;48.072;16.286;2022-09-06T00:33:38;2.80;;;2.28;;
11596;SDS011;5854;48.072;16.286;2022-09-06T00:36:06;2.92;;;2.70;;
11596;SDS011;5854;48.072;16.286;2022-09-06T00:38:34;3.22;;;2.28;;
11596;SDS011;5854;48.072;16.286;2022-09-06T00:41:02;2.00;;;1.90;;
11596;SDS011;5854;48.072;16.286;2022-09-06T00:43:30;2.25;;;2.15;;
11596;SDS011;5854;48.072;16.286;2022-09-06T00:45:57;2.85;;;2.25;;
11596;SDS011;5854;48.072;16.286;2022-09-06T00:48:26;3.60;;;2.40;;
11596;SDS011;5854;48.072;16.286;2022-09-06T00:50:54;3.60;;;2.28;;
11596;SDS011;5854;48.072;16.286;2022-09-06T00:53:26;4.70;;;2.25;;
11596;SDS011;5854;48.072;16.286;2022-09-06T00:55:54;2.78;;;2.38;;
11596;SDS011;5854;48.072;16.286;2022-09-06T00:58:21;7.03;;;2.72;;
11596;SDS011;5854;48.072;16.286;2022-09-06T01:00:50;3.17;;;2.72;;
11596;SDS011;5854;48.072;16.286;2022-09-06T01:03:18;4.43;;;2.47;;
11596;SDS011;5854;48.072;16.286;2022-09-06T01:05:50;2.60;;;2.40;;
11596;SDS011;5854;48.072;16.286;2022-09-06T01:08:29;2.95;;;2.53;;
11596;SDS011;5854;48.072;16.286;2022-09-06T01:11:18;3.00;;;2.80;;
11596;SDS011;5854;48.072;16.286;2022-09-06T01:14:03;3.33;;;2.90;;
11596;SDS011;5854;48.072;16.286;2022-09-06T01:16:42;5.95;;;3.42;;
11596;SDS011;5854;48.072;16.286;2022-09-06T01:19:43;2.83;;;2.55;;
11596;SDS011;5854;48.072;16.286;2022-09-06T01:22:59;3.78;;;2.40;;
11596;SDS011;5854;48.072;16.286;2022-09-06T01:26:31;3.85;;;2.72;;
11596;SDS011;5854;48.072;16.286;2022-09-06T01:29:43;4.05;;;2.72;;
11596;SDS011;5854;48.072;16.286;2022-09-06T01:32:16;3.05;;;2.85;;
11596;SDS011;5854;48.072;16.286;2022-09-06T01:34:53;4.00;;;2.72;;
11596;SDS011;5854;48.072;16.286;2022-09-06T01:37:29;7.00;;;2.72;;
11596;SDS011;5854;48.072;16.286;2022-09-06T01:39:56;3.35;;;2.80;;
11596;SDS011;5854;48.072;16.286;2022-09-06T01:42:24;5.57;;;3.88;;
11596;SDS011;5854;48.072;16.286;2022-09-06T01:44:56;5.55;;;3.17;;
11596;SDS011;5854;48.072;16.286;2022-09-06T01:47:34;3.88;;;3.58;;
11596;SDS011;5854;48.072;16.286;2022-09-06T01:50:20;3.22;;;2.85;;
11596;SDS011;5854;48.072;16.286;2022-09-06T01:53:31;8.70;;;3.45;;
11596;SDS011;5854;48.072;16.286;2022-09-06T01:56:14;5.68;;;3.47;;
11596;SDS011;5854;48.072;16.286;2022-09-06T01:58:55;4.65;;;3.20;;
11596;SDS011;5854;48.072;16.286;2022-09-06T02:01:41;4.80;;;3.70;;
11596;SDS011;5854;48.072;16.286;2022-09-06T02:04:20;4.73;;;3.70;;
11596;SDS011;5854;48.072;16.286;2022-09-06T02:06:53;8.73;;;3.88;;
11596;SDS011;5854;48.072;16.286;2022-09-06T02:09:28;4.63;;;3.58;;
11596;SDS011;5854;48.072;16.286;2022-09-06T02:12:03;3.35;;;3.15;;
11596;SDS011;5854;48.072;16.286;2022-09-06T02:14:32;3.50;;;3.20;;
11596;SDS011;5854;48.072;16.286;2022-09-06T02:17:06;5.32;;;2.97;;
11596;SDS011;5854;48.072;16.286;2022-09-06T02:19:38;3.20;;;3.00;;
11596;SDS011;5854;48.072;16.286;2022-09-06T02:22:13;4.75;;;3.75;;
11596;SDS011;5854;48.072;16.286;2022-09-06T02:24:45;3.85;;;3.55;;
11596;SDS011;5854;48.072;16.286;2022-09-06T02:27:16;3.30;;;3.05;;
11596;SDS011;5854;48.072;16.286;2022-09-06T02:29:43;4.13;;;3.72;;
11596;SDS011;5854;48.072;16.286;2022-09-06T02:32:12;3.30;;;3.05;;
11596;SDS011;5854;48.072;16.286;2022-09-06T02:34:44;3.10;;;2.90;;
11596;SDS011;5854;48.072;16.286;2022-09-06T02:37:12;3.53;;;3.22;;
11596;SDS011;5854;48.072;16.286;2022-09-06T02:39:42;4.60;;;3.28;;
11596;SDS011;5854;48.072;16.286;2022-09-06T02:42:09;3.53;;;3.25;;
11596;SDS011;5854;48.072;16.286;2022-09-06T02:44:39;3.45;;;3.25;;
11596;SDS011;5854;48.072;16.286;2022-09-06T02:47:07;3.55;;;3.25;;
11596;SDS011;5854;48.072;16.286;2022-09-06T02:49:35;4.07;;;3.20;;
11596;SDS011;5854;48.072;16.286;2022-09-06T02:52:03;3.65;;;3.20;;
11596;SDS011;5854;48.072;16.286;2022-09-06T02:54:30;3.42;;;3.13;;
11596;SDS011;5854;48.072;16.286;2022-09-06T02:56:57;3.70;;;3.50;;
11596;SDS011;5854;48.072;16.286;2022-09-06T02:59:24;4.93;;;4.13;;
11596;SDS011;5854;48.072;16.286;2022-09-06T03:01:52;5.47;;;4.00;;
11596;SDS011;5854;48.072;16.286;2022-09-06T03:04:19;7.22;;;3.60;;
11596;SDS011;5854;48.072;16.286;2022-09-06T03:06:47;3.90;;;3.70;;
11596;SDS011;5854;48.072;16.286;2022-09-06T03:09:15;4.40;;;3.40;;
11596;SDS011;5854;48.072;16.286;2022-09-06T03:11:42;4.20;;;3.90;;
11596;SDS011;5854;48.072;16.286;2022-09-06T03:14:09;3.50;;;3.20;;
11596;SDS011;5854;48.072;16.286;2022-09-06T03:16:36;4.00;;;3.38;;
11596;SDS011;5854;48.072;16.286;2022-09-06T03:19:03;3.75;;;3.40;;
11596;SDS011;5854;48.072;16.286;2022-09-06T03:21:30;4.00;;;3.70;;
11596;SDS011;5854;48.072;16.286;2022-09-06T03:23:59;4.40;;;3.83;;
11596;SDS011;5854;48.072;16.286;2022-09-06T03:26:26;6.03;;;4.57;;
11596;SDS011;5854;48.072;16.286;2022-09-06T03:28:54;4.78;;;4.47;;
11596;SDS011;5854;48.072;16.286;2022-09-06T03:31:22;4.88;;;4.15;;
11596;SDS011;5854;48.072;16.286;2022-09-06T03:33:49;4.68;;;4.38;;
11596;SDS011;5854;48.072;16.286;2022-09-06T03:36:16;5.47;;;4.72;;
11596;SDS011;5854;48.072;16.286;2022-09-06T03:38:44;4.47;;;4.13;;
11596;SDS011;5854;48.072;16.286;2022-09-06T03:41:12;7.65;;;4.97;;
11596;SDS011;5854;48.072;16.286;2022-09-06T03:43:39;4.78;;;4.30;;
11596;SDS011;5854;48.072;16.286;2022-09-06T03:46:07;4.85;;;4.50;;
11596;SDS011;5854;48.072;16.286;2022-09-06T03:48:34;3.92;;;3.65;;
11596;SDS011;5854;48.072;16.286;2022-09-06T03:51:01;4.15;;;3.88;;
11596;SDS011;5854;48.072;16.286;2022-09-06T03:53:28;4.43;;;4.03;;
11596;SDS011;5854;48.072;16.286;2022-09-06T03:55:56;4.57;;;4.22;;
11596;SDS011;5854;48.072;16.286;2022-09-06T03:58:27;4.65;;;4.20;;
11596;SDS011;5854;48.072;16.286;2022-09-06T04:01:00;5.47;;;4.78;;
11596;SDS011;5854;48.072;16.286;2022-09-06T04:03:30;3.95;;;3.75;;
11596;SDS011;5854;48.072;16.286;2022-09-06T04:05:57;4.68;;;4.28;;
11596;SDS011;5854;48.072;16.286;2022-09-06T04:08:25;5.10;;;4.70;;
11596;SDS011;5854;48.072;16.286;2022-09-06T04:10:52;4.88;;;3.97;;
11596;SDS011;5854;48.072;16.286;2022-09-06T04:13:21;4.65;;;4.28;;
11596;SDS011;5854;48.072;16.286;2022-09-06T04:15:50;4.65;;;4.35;;
11596;SDS011;5854;48.072;16.286;2022-09-06T04:18:18;5.80;;;4.05;;
11596;SDS011;5854;48.072;16.286;2022-09-06T04:20:46;5.00;;;4.53;;
11596;SDS011;5854;48.072;16.286;2022-09-06T04:23:15;5.03;;;4.63;;
11596;SDS011;5854;48.072;16.286;2022-09-06T04:25:44;5.78;;;5.38;;
11596;SDS011;5854;48.072;16.286;2022-09-06T04:28:12;4.90;;;4.50;;
11596;SDS011;5854;48.072;16.286;2022-09-06T04:30:42;5.95;;;4.72;;
11596;SDS011;5854;48.072;16.286;2022-09-06T04:33:11;5.15;;;4.47;;
11596;SDS011;5854;48.072;16.286;2022-09-06T04:35:38;5.07;;;4.65;;
11596;SDS011;5854;48.072;16.286;2022-09-06T04:38:05;5.13;;;4.60;;
11596;SDS011;5854;48.072;16.286;2022-09-06T04:40:32;4.47;;;4.18;;
11596;SDS011;5854;48.072;16.286;2022-09-06T04:43:00;8.15;;;4.38;;
11596;SDS011;5854;48.072;16.286;2022-09-06T04:45:27;5.35;;;4.70;;
11596;SDS011;5854;48.072;16.286;2022-09-06T04:47:54;5.68;;;4.38;;
11596;SDS011;5854;48.072;16.286;2022-09-06T04:50:22;5.30;;;4.82;;
11596;SDS011;5854;48.072;16.286;2022-09-06T04:52:49;5.63;;;5.18;;
11596;SDS011;5854;48.072;16.286;2022-09-06T04:55:16;5.55;;;5.15;;
11596;SDS011;5854;48.072;16.286;2022-09-06T04:57:44;5.25;;;4.78;;
11596;SDS011;5854;48.072;16.286;2022-09-06T05:00:11;4.88;;;4.47;;
11596;SDS011;5854;48.072;16.286;2022-09-06T05:02:39;5.32;;;4.93;;
11596;SDS011;5854;48.072;16.286;2022-09-06T05:05:07;6.28;;;4.50;;
11596;SDS011;5854;48.072;16.286;2022-09-06T05:07:36;6.38;;;5.88;;
11596;SDS011;5854;48.072;16.286;2022-09-06T05:10:03;5.97;;;5.40;;
11596;SDS011;5854;48.072;16.286;2022-09-06T05:12:31;6.65;;;4.65;;
11596;SDS011;5854;48.072;16.286;2022-09-06T05:14:58;6.20;;;5.80;;
11596;SDS011;5854;48.072;16.286;2022-09-06T05:17:26;5.85;;;5.35;;
11596;SDS011;5854;48.072;16.286;2022-09-06T05:19:53;5.20;;;4.70;;
11596;SDS011;5854;48.072;16.286;2022-09-06T05:22:20;5.35;;;4.90;;
11596;SDS011;5854;48.072;16.286;2022-09-06T05:24:48;5.25;;;4.60;;
11596;SDS011;5854;48.072;16.286;2022-09-06T05:27:16;5.32;;;4.78;;
11596;SDS011;5854;48.072;16.286;2022-09-06T05:29:43;5.70;;;5.28;;
11596;SDS011;5854;48.072;16.286;2022-09-06T05:32:10;6.18;;;5.40;;
11596;SDS011;5854;48.072;16.286;2022-09-06T05:34:38;6.93;;;5.28;;
11596;SDS011;5854;48.072;16.286;2022-09-06T05:37:05;6.07;;;5.57;;
11596;SDS011;5854;48.072;16.286;2022-09-06T05:39:32;6.57;;;5.93;;
11596;SDS011;5854;48.072;16.286;2022-09-06T05:42:00;8.85;;;6.50;;
11596;SDS011;5854;48.072;16.286;2022-09-06T05:44:30;7.68;;;6.20;;
11596;SDS011;5854;48.072;16.286;2022-09-06T05:46:58;6.90;;;6.32;;
11596;SDS011;5854;48.072;16.286;2022-09-06T05:49:25;9.07;;;6.72;;
11596;SDS011;5854;48.072;16.286;2022-09-06T05:51:55;9.63;;;7.90;;
11596;SDS011;5854;48.072;16.286;2022-09-06T05:54:23;7.97;;;7.28;;
11596;SDS011;5854;48.072;16.286;2022-09-06T05:56:50;7.15;;;6.45;;
11596;SDS011;5854;48.072;16.286;2022-09-06T05:59:18;10.70;;;7.43;;
11596;SDS011;5854;48.072;16.286;2022-09-06T06:01:46;8.13;;;7.20;;
11596;SDS011;5854;48.072;16.286;2022-09-06T06:04:15;8.27;;;7.47;;
11596;SDS011;5854;48.072;16.286;2022-09-06T06:06:43;8.68;;;7.70;;
11596;SDS011;5854;48.072;16.286;2022-09-06T06:09:11;8.88;;;8.18;;
11596;SDS011;5854;48.072;16.286;2022-09-06T06:11:38;8.63;;;7.90;;
11596;SDS011;5854;48.072;16.286;2022-09-06T06:14:06;8.27;;;7.03;;
11596;SDS011;5854;48.072;16.286;2022-09-06T06:16:35;6.78;;;5.70;;
11596;SDS011;5854;48.072;16.286;2022-09-06T06:19:02;16.40;;;7.00;;
11596;SDS011;5854;48.072;16.286;2022-09-06T06:21:30;7.00;;;6.28;;
11596;SDS011;5854;48.072;16.286;2022-09-06T06:23:59;10.40;;;6.88;;
11596;SDS011;5854;48.072;16.286;2022-09-06T06:26:30;7.72;;;7.07;;
11596;SDS011;5854;48.072;16.286;2022-09-06T06:28:58;11.32;;;6.85;;
11596;SDS011;5854;48.072;16.286;2022-09-06T06:31:27;8.55;;;7.40;;
11596;SDS011;5854;48.072;16.286;2022-09-06T06:33:55;10.10;;;7.57;;
11596;SDS011;5854;48.072;16.286;2022-09-06T06:36:24;8.48;;;6.53;;
11596;SDS011;5854;48.072;16.286;2022-09-06T06:38:55;8.18;;;6.97;;
11596;SDS011;5854;48.072;16.286;2022-09-06T06:41:23;15.52;;;9.02;;
11596;SDS011;5854;48.072;16.286;2022-09-06T06:43:53;9.85;;;6.47;;
11596;SDS011;5854;48.072;16.286;2022-09-06T06:46:22;5.72;;;5.22;;
11596;SDS011;5854;48.072;16.286;2022-09-06T06:48:51;7.60;;;7.10;;
11596;SDS011;5854;48.072;16.286;2022-09-06T06:51:21;8.68;;;7.80;;
11596;SDS011;5854;48.072;16.286;2022-09-06T06:53:50;14.05;;;7.75;;
11596;SDS011;5854;48.072;16.286;2022-09-06T06:56:18;7.28;;;6.65;;
11596;SDS011;5854;48.072;16.286;2022-09-06T06:58:48;9.18;;;8.00;;
11596;SDS011;5854;48.072;16.286;2022-09-06T07:01:17;10.75;;;7.32;;
11596;SDS011;5854;48.072;16.286;2022-09-06T07:03:47;8.60;;;7.85;;
11596;SDS011;5854;48.072;16.286;2022-09-06T07:06:15;12.32;;;6.53;;
11596;SDS011;5854;48.072;16.286;2022-09-06T07:08:45;6.93;;;6.38;;
11596;SDS011;5854;48.072;16.286;2022-09-06T07:11:13;11.98;;;5.72;;
11596;SDS011;5854;48.072;16.286;2022-09-06T07:13:42;6.50;;;5.63;;
11596;SDS011;5854;48.072;16.286;2022-09-06T07:16:10;7.32;;;6.63;;
11596;SDS011;5854;48.072;16.286;2022-09-06T07:18:39;6.07;;;5.50;;
11596;SDS011;5854;48.072;16.286;2022-09-06T07:21:10;6.93;;;6.00;;
11596;SDS011;5854;48.072;16.286;2022-09-06T07:23:39;6.45;;;6.03;;
11596;SDS011;5854;48.072;16.286;2022-09-06T07:26:12;7.15;;;6.35;;
11596;SDS011;5854;48.072;16.286;2022-09-06T07:28:40;11.52;;;7.80;;
11596;SDS011;5854;48.072;16.286;2022-09-06T07:31:07;6.43;;;5.90;;
11596;SDS011;5854;48.072;16.286;2022-09-06T07:33:35;7.30;;;6.60;;
11596;SDS011;5854;48.072;16.286;2022-09-06T07:36:04;8.38;;;6.43;;
11596;SDS011;5854;48.072;16.286;2022-09-06T07:38:33;7.55;;;7.03;;
11596;SDS011;5854;48.072;16.286;2022-09-06T07:41:01;7.38;;;6.60;;
11596;SDS011;5854;48.072;16.286;2022-09-06T07:43:32;7.82;;;6.93;;
11596;SDS011;5854;48.072;16.286;2022-09-06T07:46:00;8.95;;;5.43;;
11596;SDS011;5854;48.072;16.286;2022-09-06T07:48:30;9.43;;;5.55;;
11596;SDS011;5854;48.072;16.286;2022-09-06T07:51:02;8.43;;;6.95;;
11596;SDS011;5854;48.072;16.286;2022-09-06T07:53:31;8.18;;;6.88;;
11596;SDS011;5854;48.072;16.286;2022-09-06T07:55:59;6.85;;;6.45;;
11596;SDS011;5854;48.072;16.286;2022-09-06T07:58:28;5.97;;;5.15;;
11596;SDS011;5854;48.072;16.286;2022-09-06T08:01:24;7.40;;;7.00;;
11596;SDS011;5854;48.072;16.286;2022-09-06T08:03:54;9.18;;;7.95;;
11596;SDS011;5854;48.072;16.286;2022-09-06T08:06:22;7.55;;;6.82;;
11596;SDS011;5854;48.072;16.286;2022-09-06T08:08:50;10.13;;;7.00;;
11596;SDS011;5854;48.072;16.286;2022-09-06T08:11:18;7.82;;;6.40;;
11596;SDS011;5854;48.072;16.286;2022-09-06T08:13:47;9.20;;;7.28;;
11596;SDS011;5854;48.072;16.286;2022-09-06T08:16:16;10.43;;;8.07;;
11596;SDS011;5854;48.072;16.286;2022-09-06T08:18:48;8.25;;;7.45;;
11596;SDS011;5854;48.072;16.286;2022-09-06T08:21:16;8.40;;;7.70;;
11596;SDS011;5854;48.072;16.286;2022-09-06T08:23:45;7.97;;;7.18;;
11596;SDS011;5854;48.072;16.286;2022-09-06T08:26:15;10.13;;;8.75;;
11596;SDS011;5854;48.072;16.286;2022-09-06T08:28:43;8.60;;;7.88;;
11596;SDS011;5854;48.072;16.286;2022-09-06T08:31:11;8.82;;;8.23;;
11596;SDS011;5854;48.072;16.286;2022-09-06T08:33:40;8.70;;;7.95;;
11596;SDS011;5854;48.072;16.286;2022-09-06T08:36:09;7.53;;;6.93;;
11596;SDS011;5854;48.072;16.286;2022-09-06T08:38:37;9.43;;;8.77;;
11596;SDS011;5854;48.072;16.286;2022-09-06T08:41:05;8.75;;;7.95;;
11596;SDS011;5854;48.072;16.286;2022-09-06T08:43:37;8.93;;;8.05;;
11596;SDS011;5854;48.072;16.286;2022-09-06T08:46:05;10.13;;;8.43;;
11596;SDS011;5854;48.072;16.286;2022-09-06T08:48:34;9.10;;;8.23;;
11596;SDS011;5854;48.072;16.286;2022-09-06T08:51:10;9.40;;;8.70;;
11596;SDS011;5854;48.072;16.286;2022-09-06T08:54:27;10.88;;;8.15;;
11596;SDS011;5854;48.072;16.286;2022-09-06T08:57:03;10.23;;;8.02;;
11596;SDS011;5854;48.072;16.286;2022-09-06T08:59:37;8.75;;;7.97;;
11596;SDS011;5854;48.072;16.286;2022-09-06T09:02:08;10.68;;;9.15;;
11596;SDS011;5854;48.072;16.286;2022-09-06T09:04:39;9.43;;;7.95;;
11596;SDS011;5854;48.072;16.286;2022-09-06T09:07:29;10.32;;;8.25;;
11596;SDS011;5854;48.072;16.286;2022-09-06T09:10:08;9.35;;;8.30;;
11596;SDS011;5854;48.072;16.286;2022-09-06T09:12:42;8.13;;;7.22;;
11596;SDS011;5854;48.072;16.286;2022-09-06T09:15:12;8.77;;;7.97;;
11596;SDS011;5854;48.072;16.286;2022-09-06T09:17:41;8.98;;;8.20;;
11596;SDS011;5854;48.072;16.286;2022-09-06T09:20:09;10.20;;;9.27;;
11596;SDS011;5854;48.072;16.286;2022-09-06T09:22:36;8.82;;;8.13;;
11596;SDS011;5854;48.072;16.286;2022-09-06T09:25:05;14.32;;;10.32;;
11596;SDS011;5854;48.072;16.286;2022-09-06T09:27:41;14.48;;;7.78;;
11596;SDS011;5854;48.072;16.286;2022-09-06T09:30:11;12.45;;;9.23;;
11596;SDS011;5854;48.072;16.286;2022-09-06T09:32:39;11.25;;;9.68;;
11596;SDS011;5854;48.072;16.286;2022-09-06T09:35:16;12.50;;;9.63;;
11596;SDS011;5854;48.072;16.286;2022-09-06T09:37:47;11.07;;;9.95;;
11596;SDS011;5854;48.072;16.286;2022-09-06T09:40:30;14.85;;;8.30;;
11596;SDS011;5854;48.072;16.286;2022-09-06T09:43:13;12.82;;;8.98;;
11596;SDS011;5854;48.072;16.286;2022-09-06T09:45:43;15.18;;;10.05;;
11596;SDS011;5854;48.072;16.286;2022-09-06T09:48:17;7.95;;;7.38;;
11596;SDS011;5854;48.072;16.286;2022-09-06T09:50:51;9.07;;;7.82;;
11596;SDS011;5854;48.072;16.286;2022-09-06T09:53:20;14.43;;;9.35;;
11596;SDS011;5854;48.072;16.286;2022-09-06T09:55:54;9.88;;;6.63;;
11596;SDS011;5854;48.072;16.286;2022-09-06T09:58:28;7.93;;;7.10;;
11596;SDS011;5854;48.072;16.286;2022-09-06T10:01:09;10.82;;;7.97;;
11596;SDS011;5854;48.072;16.286;2022-09-06T10:03:43;8.40;;;7.57;;
11596;SDS011;5854;48.072;16.286;2022-09-06T10:06:11;9.82;;;8.85;;
11596;SDS011;5854;48.072;16.286;2022-09-06T10:08:41;9.70;;;7.40;;
11596;SDS011;5854;48.072;16.286;2022-09-06T10:11:13;8.18;;;6.95;;
11596;SDS011;5854;48.072;16.286;2022-09-06T10:13:40;10.07;;;7.15;;
11596;SDS011;5854;48.072;16.286;2022-09-06T10:16:08;9.30;;;8.43;;
11596;SDS011;5854;48.072;16.286;2022-09-06T10:18:36;9.00;;;7.88;;
11596;SDS011;5854;48.072;16.286;2022-09-06T10:21:06;10.20;;;8.70;;
11596;SDS011;5854;48.072;16.286;2022-09-06T10:23:40;12.02;;;8.00;;
11596;SDS011;5854;48.072;16.286;2022-09-06T10:26:28;9.38;;;7.35;;
11596;SDS011;5854;48.072;16.286;2022-09-06T10:29:03;12.15;;;8.10;;
11596;SDS011;5854;48.072;16.286;2022-09-06T10:31:46;7.93;;;7.22;;
11596;SDS011;5854;48.072;16.286;2022-09-06T10:34:34;12.88;;;7.40;;
11596;SDS011;5854;48.072;16.286;2022-09-06T10:37:23;9.70;;;6.32;;
11596;SDS011;5854;48.072;16.286;2022-09-06T10:40:20;9.48;;;8.18;;
11596;SDS011;5854;48.072;16.286;2022-09-06T10:42:57;8.18;;;7.32;;
11596;SDS011;5854;48.072;16.286;2022-09-06T10:45:28;10.30;;;8.27;;
11596;SDS011;5854;48.072;16.286;2022-09-06T10:48:11;7.88;;;7.07;;
11596;SDS011;5854;48.072;16.286;2022-09-06T10:50:47;13.70;;;6.45;;
11596;SDS011;5854;48.072;16.286;2022-09-06T10:53:23;8.48;;;5.70;;
11596;SDS011;5854;48.072;16.286;2022-09-06T10:56:04;9.18;;;6.10;;
11596;SDS011;5854;48.072;16.286;2022-09-06T10:58:39;11.23;;;7.20;;
11596;SDS011;5854;48.072;16.286;2022-09-06T11:01:15;9.60;;;6.60;;
11596;SDS011;5854;48.072;16.286;2022-09-06T11:03:50;7.05;;;6.65;;
11596;SDS011;5854;48.072;16.286;2022-09-06T11:06:21;7.85;;;7.15;;
11596;SDS011;5854;48.072;16.286;2022-09-06T11:08:55;11.30;;;7.35;;
11596;SDS011;5854;48.072;16.286;2022-09-06T11:11:29;10.88;;;6.28;;
11596;SDS011;5854;48.072;16.286;2022-09-06T11:14:08;6.20;;;5.70;;
11596;SDS011;5854;48.072;16.286;2022-09-06T11:16:40;7.07;;;6.47;;
11596;SDS011;5854;48.072;16.286;2022-09-06T11:19:14;6.30;;;5.30;;
11596;SDS011;5854;48.072;16.286;2022-09-06T11:22:00;9.60;;;6.32;;
11596;SDS011;5854;48.072;16.286;2022-09-06T11:25:17;7.97;;;5.80;;
11596;SDS011;5854;48.072;16.286;2022-09-06T11:28:06;11.88;;;6.28;;
11596;SDS011;5854;48.072;16.286;2022-09-06T11:30:43;6.47;;;6.03;;
11596;SDS011;5854;48.072;16.286;2022-09-06T11:33:17;6.65;;;5.90;;
11596;SDS011;5854;48.072;16.286;2022-09-06T11:35:50;10.75;;;6.00;;
11596;SDS011;5854;48.072;16.286;2022-09-06T11:38:20;6.80;;;6.10;;
11596;SDS011;5854;48.072;16.286;2022-09-06T11:49:30;5.30;;;4.82;;
11596;SDS011;5854;48.072;16.286;2022-09-06T11:51:59;6.00;;;5.10;;
11596;SDS011;5854;48.072;16.286;2022-09-06T11:54:31;5.20;;;4.85;;
11596;SDS011;5854;48.072;16.286;2022-09-06T11:57:12;5.90;;;5.32;;
11596;SDS011;5854;48.072;16.286;2022-09-06T11:59:50;6.90;;;4.68;;
11596;SDS011;5854;48.072;16.286;2022-09-06T12:02:30;6.97;;;4.45;;
11596;SDS011;5854;48.072;16.286;2022-09-06T12:05:08;5.80;;;4.82;;
11596;SDS011;5854;48.072;16.286;2022-09-06T12:11:05;8.63;;;5.82;;
11596;SDS011;5854;48.072;16.286;2022-09-06T12:13:52;9.30;;;4.57;;
11596;SDS011;5854;48.072;16.286;2022-09-06T12:16:24;5.68;;;5.20;;
11596;SDS011;5854;48.072;16.286;2022-09-06T12:19:58;6.40;;;5.80;;
11596;SDS011;5854;48.072;16.286;2022-09-06T12:22:50;6.82;;;4.82;;
11596;SDS011;5854;48.072;16.286;2022-09-06T12:25:48;5.53;;;5.03;;
11596;SDS011;5854;48.072;16.286;2022-09-06T12:28:24;5.10;;;4.68;;
11596;SDS011;5854;48.072;16.286;2022-09-06T12:33:52;5.65;;;5.05;;
11596;SDS011;5854;48.072;16.286;2022-09-06T12:36:22;5.75;;;5.25;;
11596;SDS011;5854;48.072;16.286;2022-09-06T12:38:54;7.25;;;5.13;;
11596;SDS011;5854;48.072;16.286;2022-09-06T12:41:23;6.30;;;4.50;;
11596;SDS011;5854;48.072;16.286;2022-09-06T12:43:54;5.72;;;5.07;;
11596;SDS011;5854;48.072;16.286;2022-09-06T12:46:24;6.22;;;4.88;;
11596;SDS011;5854;48.072;16.286;2022-09-06T12:49:00;6.47;;;4.15;;
11596;SDS011;5854;48.072;16.286;2022-09-06T12:51:32;8.93;;;4.03;;
11596;SDS011;5854;48.072;16.286;2022-09-06T12:54:01;8.80;;;4.35;;
11596;SDS011;5854;48.072;16.286;2022-09-06T12:56:31;5.43;;;4.88;;
11596;SDS011;5854;48.072;16.286;2022-09-06T12:59:15;6.53;;;4.80;;
11596;SDS011;5854;48.072;16.286;2022-09-06T13:01:55;4.28;;;3.95;;
11596;SDS011;5854;48.072;16.286;2022-09-06T13:04:29;8.27;;;4.15;;
11596;SDS011;5854;48.072;16.286;2022-09-06T13:07:05;5.85;;;5.00;;
11596;SDS011;5854;48.072;16.286;2022-09-06T13:09:40;5.35;;;4.95;;
11596;SDS011;5854;48.072;16.286;2022-09-06T13:12:15;9.98;;;5.05;;
11596;SDS011;5854;48.072;16.286;2022-09-06T13:14:54;8.10;;;4.78;;
11596;SDS011;5854;48.072;16.286;2022-09-06T13:17:28;5.53;;;5.03;;
11596;SDS011;5854;48.072;16.286;2022-09-06T13:19:56;23.20;;;7.18;;
11596;SDS011;5854;48.072;16.286;2022-09-06T13:22:43;9.02;;;4.90;;
11596;SDS011;5854;48.072;16.286;2022-09-06T13:25:16;6.03;;;5.43;;
11596;SDS011;5854;48.072;16.286;2022-09-06T13:27:51;9.23;;;4.85;;
11596;SDS011;5854;48.072;16.286;2022-09-06T13:33:19;11.18;;;4.70;;
11596;SDS011;5854;48.072;16.286;2022-09-06T13:36:15;6.63;;;6.13;;
11596;SDS011;5854;48.072;16.286;2022-09-06T13:44:16;7.28;;;5.25;;
11596;SDS011;5854;48.072;16.286;2022-09-06T13:46:52;7.60;;;5.65;;
11596;SDS011;5854;48.072;16.286;2022-09-06T13:49:20;5.95;;;5.28;;
11596;SDS011;5854;48.072;16.286;2022-09-06T13:51:48;9.35;;;4.15;;
11596;SDS011;5854;48.072;16.286;2022-09-06T13:54:17;10.25;;;5.53;;
11596;SDS011;5854;48.072;16.286;2022-09-06T13:56:48;9.60;;;4.63;;
11596;SDS011;5854;48.072;16.286;2022-09-06T13:59:16;4.68;;;4.28;;
11596;SDS011;5854;48.072;16.286;2022-09-06T14:01:44;4.47;;;3.92;;
11596;SDS011;5854;48.072;16.286;2022-09-06T14:04:18;5.35;;;4.75;;
11596;SDS011;5854;48.072;16.286;2022-09-06T14:06:46;4.93;;;4.53;;
11596;SDS011;5854;48.072;16.286;2022-09-06T14:09:14;4.68;;;3.95;;
11596;SDS011;5854;48.072;16.286;2022-09-06T14:11:42;6.10;;;4.38;;
11596;SDS011;5854;48.072;16.286;2022-09-06T14:14:10;6.70;;;4.47;;
11596;SDS011;5854;48.072;16.286;2022-09-06T14:16:38;8.57;;;4.80;;
11596;SDS011;5854;48.072;16.286;2022-09-06T14:19:05;8.07;;;4.90;;
11596;SDS011;5854;48.072;16.286;2022-09-06T14:21:32;6.10;;;4.90;;
11596;SDS011;5854;48.072;16.286;2022-09-06T14:23:59;7.07;;;3.92;;
11596;SDS011;5854;48.072;16.286;2022-09-06T14:26:27;8.55;;;4.40;;
11596;SDS011;5854;48.072;16.286;2022-09-06T14:28:56;4.55;;;3.83;;
11596;SDS011;5854;48.072;16.286;2022-09-06T14:31:26;5.15;;;3.97;;
11596;SDS011;5854;48.072;16.286;2022-09-06T14:33:54;6.45;;;4.32;;
11596;SDS011;5854;48.072;16.286;2022-09-06T14:36:29;5.82;;;3.60;;
11596;SDS011;5854;48.072;16.286;2022-09-06T14:38:58;4.90;;;4.18;;
11596;SDS011;5854;48.072;16.286;2022-09-06T14:41:26;5.53;;;4.47;;
11596;SDS011;5854;48.072;16.286;2022-09-06T14:43:55;7.55;;;4.15;;
11596;SDS011;5854;48.072;16.286;2022-09-06T14:46:25;7.88;;;4.63;;
11596;SDS011;5854;48.072;16.286;2022-09-06T14:48:56;7.27;;;4.07;;
11596;SDS011;5854;48.072;16.286;2022-09-06T14:51:25;9.48;;;4.50;;
11596;SDS011;5854;48.072;16.286;2022-09-06T14:53:54;9.35;;;4.50;;
11596;SDS011;5854;48.072;16.286;2022-09-06T14:56:23;6.25;;;3.47;;
11596;SDS011;5854;48.072;16.286;2022-09-06T14:58:51;5.55;;;3.88;;
11596;SDS011;5854;48.072;16.286;2022-09-06T15:01:22;9.25;;;4.45;;
11596;SDS011;5854;48.072;16.286;2022-09-06T15:06:22;3.90;;;3.60;;
11596;SDS011;5854;48.072;16.286;2022-09-06T15:08:51;8.80;;;4.40;;
11596;SDS011;5854;48.072;16.286;2022-09-06T15:11:25;6.15;;;3.45;;
11596;SDS011;5854;48.072;16.286;2022-09-06T15:13:55;3.92;;;3.63;;
11596;SDS011;5854;48.072;16.286;2022-09-06T15:16:22;5.35;;;3.65;;
11596;SDS011;5854;48.072;16.286;2022-09-06T15:18:52;4.82;;;3.70;;
11596;SDS011;5854;48.072;16.286;2022-09-06T15:21:19;6.07;;;3.33;;
11596;SDS011;5854;48.072;16.286;2022-09-06T15:23:47;5.03;;;4.30;;
11596;SDS011;5854;48.072;16.286;2022-09-06T15:26:14;5.80;;;3.63;;
11596;SDS011;5854;48.072;16.286;2022-09-06T15:28:43;5.18;;;3.85;;
11596;SDS011;5854;48.072;16.286;2022-09-06T15:31:10;8.20;;;4.07;;
11596;SDS011;5854;48.072;16.286;2022-09-06T15:33:40;3.90;;;3.30;;
11596;SDS011;5854;48.072;16.286;2022-09-06T15:36:08;4.45;;;4.13;;
11596;SDS011;5854;48.072;16.286;2022-09-06T15:38:39;5.15;;;3.80;;
11596;SDS011;5854;48.072;16.286;2022-09-06T15:41:08;3.85;;;3.55;;